Time;durP1;ratioP1;P1;durP2;ratioP2;P2;SDS_P1;SDS_P2;PMS_P1;PMS_P2;Temp;Humidity;BMP_temperature;BMP_pressure;BME280_temperature;BME280_humidity;BME280_pressure;Samples;Min_cycle;Max_cycle;Signal;HPM_P1;HPM_P2
2023/04/27 00:02:07;;;;;;;7.65;4.20;;;;;;;7.49;62.73;101997.38;5074670;28;20111;-63
2023/04/27 00:04:32;;;;;;;10.10;3.90;;;;;;;7.47;63.42;101995.50;5074380;28;20025;-62
2023/04/27 00:06:58;;;;;;;7.57;3.70;;;;;;;7.41;63.00;101997.88;5074514;28;20096;-63
2023/04/27 00:09:23;;;;;;;8.10;4.10;;;;;;;7.37;62.84;101999.50;5056467;28;20389;-62
2023/04/27 00:11:48;;;;;;;8.77;3.95;;;;;;;7.34;62.95;101996.72;5074256;28;20029;-62
2023/04/27 00:14:14;;;;;;;7.20;4.10;;;;;;;7.34;62.62;101991.47;5074462;28;20021;-62
2023/04/27 00:16:39;;;;;;;5.13;3.80;;;;;;;7.35;63.18;101992.38;5074312;28;20086;-62
2023/04/27 00:19:05;;;;;;;6.22;3.78;;;;;;;7.30;63.39;101996.53;5074156;28;20490;-63
2023/04/27 00:21:31;;;;;;;8.73;4.00;;;;;;;7.24;63.02;102005.06;5074400;28;20119;-63
2023/04/27 00:23:56;;;;;;;6.72;3.80;;;;;;;7.20;63.23;101993.53;5074295;28;20528;-63
2023/04/27 00:26:21;;;;;;;7.15;3.85;;;;;;;7.20;64.43;101992.63;5073385;28;20150;-62
2023/04/27 00:28:47;;;;;;;8.75;3.95;;;;;;;7.13;64.75;101991.44;5073783;28;20075;-63
2023/04/27 00:31:12;;;;;;;6.60;3.92;;;;;;;7.05;64.25;101994.59;5073816;28;20052;-63
2023/04/27 00:33:38;;;;;;;6.55;3.50;;;;;;;6.91;64.77;101989.63;5056042;28;20021;-62
2023/04/27 00:36:03;;;;;;;5.65;3.58;;;;;;;6.91;65.05;101994.88;5073771;28;20115;-62
2023/04/27 00:38:29;;;;;;;7.85;4.03;;;;;;;6.83;65.26;102005.88;5073818;28;20048;-63
2023/04/27 00:41:05;;;;;;;8.75;3.70;;;;;;;6.78;65.09;101995.16;5073689;28;20465;-63
2023/04/27 00:43:31;;;;;;;7.13;3.55;;;;;;;6.81;64.80;101997.00;5073661;28;20024;-64
2023/04/27 00:45:58;;;;;;;6.53;3.88;;;;;;;6.77;64.69;101994.28;5055394;28;20509;-62
2023/04/27 00:48:24;;;;;;;4.68;3.50;;;;;;;6.77;64.82;101991.66;5073494;28;20108;-62
2023/04/27 00:50:50;;;;;;;5.90;3.80;;;;;;;6.77;64.31;102002.16;5073513;28;20024;-62
2023/04/27 00:53:16;;;;;;;7.10;3.97;;;;;;;6.79;65.01;101999.59;5073724;28;20029;-63
2023/04/27 00:55:41;;;;;;;7.38;3.83;;;;;;;6.76;65.14;101989.81;5055706;28;20020;-63
2023/04/27 00:58:07;;;;;;;6.80;3.60;;;;;;;6.80;65.49;101987.34;5073091;28;20381;-64
2023/04/27 01:00:35;;;;;;;8.50;3.75;;;;;;;6.75;65.81;101985.41;5073428;28;20029;-63
2023/04/27 01:03:01;;;;;;;8.38;3.80;;;;;;;6.72;65.49;101987.00;5073165;28;20060;-63
2023/04/27 01:05:27;;;;;;;6.47;3.55;;;;;;;6.62;66.10;101988.31;5073282;28;20024;-63
2023/04/27 01:07:53;;;;;;;8.00;4.20;;;;;;;6.53;65.58;101986.19;5055737;28;20036;-63
2023/04/27 01:10:19;;;;;;;7.50;3.90;;;;;;;6.51;65.60;101989.59;5055312;28;20440;-63
2023/04/27 01:12:44;;;;;;;6.63;3.67;;;;;;;6.50;65.66;101987.75;5073577;28;20070;-62
2023/04/27 01:15:10;;;;;;;7.47;4.00;;;;;;;6.48;64.94;101982.47;5055145;28;20085;-64
2023/04/27 01:17:36;;;;;;;7.20;3.90;;;;;;;6.47;64.92;101993.78;5073180;28;20029;-63
2023/04/27 01:20:01;;;;;;;7.70;3.90;;;;;;;6.45;65.41;101986.66;5073213;28;20024;-63
2023/04/27 01:22:27;;;;;;;5.65;3.90;;;;;;;6.44;66.01;101993.66;5072944;28;20131;-62
2023/04/27 01:24:52;;;;;;;6.30;4.20;;;;;;;6.43;65.91;101985.72;5072852;28;20119;-64
2023/04/27 01:27:18;;;;;;;6.55;4.25;;;;;;;6.37;66.71;102006.41;5055032;28;20355;-63
2023/04/27 01:29:43;;;;;;;7.30;4.00;;;;;;;6.21;66.80;102003.09;5072787;28;20056;-63
2023/04/27 01:32:09;;;;;;;8.18;3.92;;;;;;;6.07;67.68;102003.25;5073002;28;20032;-63
2023/04/27 01:34:34;;;;;;;8.68;4.47;;;;;;;5.94;68.83;102002.66;5072903;28;20029;-63
2023/04/27 01:37:00;;;;;;;7.32;4.22;;;;;;;5.79;68.49;101999.28;5073110;28;20032;-62
2023/04/27 01:39:26;;;;;;;13.45;5.38;;;;;;;5.75;68.71;101997.31;5053771;28;20041;-63
2023/04/27 01:41:51;;;;;;;6.78;4.20;;;;;;;5.75;68.95;101992.97;5072732;28;20029;-63
2023/04/27 01:44:19;;;;;;;7.97;4.18;;;;;;;5.79;68.93;101994.03;5072665;28;20108;-63
2023/04/27 01:46:45;;;;;;;8.45;4.18;;;;;;;5.88;68.64;101990.94;5054888;28;20028;-62
2023/04/27 01:49:10;;;;;;;7.60;4.55;;;;;;;5.92;68.21;101993.81;5054793;28;20028;-63
2023/04/27 01:51:35;;;;;;;6.80;4.50;;;;;;;5.95;68.30;101998.31;5072708;28;20025;-63
2023/04/27 01:54:01;;;;;;;9.93;4.43;;;;;;;5.95;68.37;101998.31;5072967;28;20029;-63
2023/04/27 01:56:26;;;;;;;11.30;4.65;;;;;;;5.92;67.93;101993.81;5072744;28;20033;-63
2023/04/27 01:58:52;;;;;;;7.78;4.20;;;;;;;5.90;67.94;101984.03;5072508;28;20029;-64
2023/04/27 02:01:18;;;;;;;8.15;4.32;;;;;;;5.87;67.79;101984.81;5072826;28;20027;-62
2023/04/27 02:03:43;;;;;;;5.90;4.07;;;;;;;5.83;68.00;101985.50;5072595;28;20385;-66
2023/04/27 02:06:08;;;;;;;6.03;3.97;;;;;;;5.80;67.63;101987.06;5072680;28;20037;-63
2023/04/27 02:08:34;;;;;;;8.90;3.85;;;;;;;5.83;68.21;101988.13;5072574;28;20024;-62
2023/04/27 02:10:59;;;;;;;6.93;4.10;;;;;;;5.84;68.05;101975.88;5072608;28;20482;-63
2023/04/27 02:13:25;;;;;;;8.20;3.67;;;;;;;5.81;67.82;101973.09;5072793;28;20036;-63
2023/04/27 02:15:50;;;;;;;7.80;3.88;;;;;;;5.85;68.12;101980.31;5072255;28;20029;-64
2023/04/27 02:18:16;;;;;;;6.32;4.00;;;;;;;5.72;68.72;101968.31;5072544;28;20032;-63
2023/04/27 02:20:41;;;;;;;6.60;4.22;;;;;;;5.70;68.46;101981.38;5072524;28;20020;-63
2023/04/27 02:23:07;;;;;;;7.45;4.03;;;;;;;5.74;68.65;101982.44;5072469;28;20028;-63
2023/04/27 02:25:35;;;;;;;6.57;3.78;;;;;;;5.63;68.14;101975.75;5072632;28;20120;-63
2023/04/27 02:28:01;;;;;;;5.57;3.88;;;;;;;5.60;68.48;101971.25;5072196;28;20035;-64
2023/04/27 02:30:27;;;;;;;6.13;4.07;;;;;;;5.52;68.19;101949.00;5054408;28;20115;-64
2023/04/27 02:32:52;;;;;;;5.75;3.88;;;;;;;5.60;68.10;101966.00;5072552;28;20016;-62
2023/04/27 02:35:17;;;;;;;5.90;4.00;;;;;;;5.57;67.81;101958.00;5072436;28;20092;-64
2023/04/27 02:37:43;;;;;;;9.00;4.55;;;;;;;5.57;68.36;101955.38;5072184;28;20489;-63
2023/04/27 02:40:09;;;;;;;5.15;3.88;;;;;;;5.59;68.20;101956.34;5072347;28;20060;-63
2023/04/27 02:42:34;;;;;;;6.25;4.03;;;;;;;5.50;68.47;101959.41;5072227;28;20090;-63
2023/04/27 02:45:00;;;;;;;7.45;4.05;;;;;;;5.53;68.91;101962.19;5072180;28;20113;-63
2023/04/27 02:47:25;;;;;;;7.30;4.60;;;;;;;5.42;69.66;101962.47;5054265;28;20024;-63
2023/04/27 02:49:51;;;;;;;6.97;4.50;;;;;;;5.33;69.42;101959.41;5073705;28;20428;-63
2023/04/27 02:52:17;;;;;;;6.75;4.40;;;;;;;5.26;69.09;101958.19;5075944;28;20033;-63
2023/04/27 02:54:42;;;;;;;6.65;4.72;;;;;;;5.17;70.19;101962.97;5075808;28;20054;-64
2023/04/27 02:57:07;;;;;;;7.18;4.82;;;;;;;5.17;70.13;101962.97;5057777;28;20051;-63
2023/04/27 02:59:33;;;;;;;7.00;4.70;;;;;;;5.14;69.71;101963.75;5075442;28;20082;-63
2023/04/27 03:01:58;;;;;;;7.65;4.43;;;;;;;5.19;69.75;101972.72;5075579;28;20525;-63
2023/04/27 03:04:24;;;;;;;5.80;3.97;;;;;;;5.23;69.64;101963.28;5075512;28;20021;-63
2023/04/27 03:06:49;;;;;;;5.78;4.13;;;;;;;5.31;69.73;101969.81;5075755;28;20033;-63
2023/04/27 03:09:15;;;;;;;6.68;4.57;;;;;;;5.37;68.75;101963.97;5075494;28;20032;-63
2023/04/27 03:11:40;;;;;;;9.52;4.32;;;;;;;5.40;68.93;101965.03;5075474;28;20033;-63
2023/04/27 03:14:06;;;;;;;8.55;4.90;;;;;;;5.43;69.30;101961.66;5057941;28;20056;-63
2023/04/27 03:16:31;;;;;;;7.85;4.88;;;;;;;5.42;69.63;101959.84;5075323;28;20115;-63
2023/04/27 03:18:57;;;;;;;7.80;4.70;;;;;;;5.40;69.57;101951.03;5075243;28;20363;-63
2023/04/27 03:21:22;;;;;;;10.20;5.15;;;;;;;5.40;69.05;101957.19;5075271;28;20082;-63
2023/04/27 03:23:48;;;;;;;10.75;5.22;;;;;;;5.35;69.80;101966.50;5057381;28;20559;-63
2023/04/27 03:26:13;;;;;;;10.43;5.25;;;;;;;5.34;70.12;101963.81;5075172;28;20078;-62
2023/04/27 03:28:39;;;;;;;6.70;4.68;;;;;;;5.30;69.49;101968.00;5075069;28;20358;-63
2023/04/27 03:31:07;;;;;;;8.50;5.30;;;;;;;5.23;69.90;101965.91;5074891;28;20052;-63
2023/04/27 03:33:33;;;;;;;9.18;5.35;;;;;;;5.08;71.17;101971.25;5075123;28;20029;-63
2023/04/27 03:35:59;;;;;;;9.40;4.97;;;;;;;4.94;70.80;101970.56;5075107;28;20398;-64
2023/04/27 03:38:25;;;;;;;12.65;5.43;;;;;;;4.96;71.69;101975.88;5074614;28;20045;-63
2023/04/27 03:40:52;;;;;;;9.65;5.43;;;;;;;4.95;71.33;101979.31;5075036;28;20029;-63
2023/04/27 03:43:18;;;;;;;8.65;4.72;;;;;;;5.02;71.25;101982.34;5074884;28;20490;-63
2023/04/27 03:45:44;;;;;;;9.57;4.78;;;;;;;5.08;70.43;101976.50;5074838;28;20056;-63
2023/04/27 03:48:10;;;;;;;8.02;5.45;;;;;;;5.15;70.17;101978.63;5057210;28;20055;-62
2023/04/27 03:50:35;;;;;;;9.85;5.28;;;;;;;5.18;70.18;101983.09;5074763;28;20469;-63
2023/04/27 03:53:01;;;;;;;10.40;5.10;;;;;;;5.12;70.46;101981.09;5056883;28;20108;-63
2023/04/27 03:55:26;;;;;;;8.90;5.40;;;;;;;5.11;70.60;101974.06;5074668;28;20029;-63
2023/04/27 03:57:51;;;;;;;8.60;5.47;;;;;;;5.12;69.83;101978.47;5074526;28;20025;-63
2023/04/27 04:00:17;;;;;;;10.85;5.22;;;;;;;5.09;70.83;101982.63;5074337;28;20169;-63
2023/04/27 04:02:43;;;;;;;10.00;5.10;;;;;;;5.03;70.31;101986.75;5073742;28;20478;-63
2023/04/27 04:05:09;;;;;;;10.95;5.43;;;;;;;5.07;70.29;101982.56;5074422;28;20027;-63
2023/04/27 04:07:34;;;;;;;10.80;5.57;;;;;;;5.13;71.04;101987.22;5074709;28;20025;-63
2023/04/27 04:10:00;;;;;;;10.05;5.20;;;;;;;5.17;70.41;101976.97;5074266;28;20037;-63
2023/04/27 04:12:25;;;;;;;8.93;4.97;;;;;;;5.23;69.44;101985.16;5074427;28;20025;-63
2023/04/27 04:14:51;;;;;;;8.90;5.22;;;;;;;5.24;69.44;101986.94;5059055;22;20129;-63
2023/04/27 04:17:16;;;;;;;9.35;5.32;;;;;;;5.19;69.74;101985.81;5054283;28;20076;-63
2023/04/27 04:19:41;;;;;;;7.82;5.07;;;;;;;5.12;69.78;101988.94;5036388;28;20120;-63
2023/04/27 04:22:07;;;;;;;10.63;5.32;;;;;;;5.06;70.06;101991.25;5054230;28;20060;-63
2023/04/27 04:24:32;;;;;;;17.92;5.95;;;;;;;5.06;70.27;101996.50;5054188;28;20079;-63
2023/04/27 04:26:58;;;;;;;10.80;5.45;;;;;;;5.09;71.00;101994.00;5054070;28;20462;-63
2023/04/27 04:29:24;;;;;;;10.10;4.95;;;;;;;5.10;70.50;102011.56;5054212;28;20072;-63
2023/04/27 04:31:50;;;;;;;10.38;5.35;;;;;;;5.12;70.32;101993.28;5053914;28;20029;-63
2023/04/27 04:34:15;;;;;;;9.82;5.40;;;;;;;5.14;70.54;102002.09;5054252;28;20035;-63
2023/04/27 04:36:40;;;;;;;10.05;5.40;;;;;;;5.17;70.53;102000.56;5053860;28;20032;-63
2023/04/27 04:39:06;;;;;;;9.73;5.40;;;;;;;5.10;69.94;101995.84;5054100;28;20064;-63
2023/04/27 04:41:32;;;;;;;9.98;5.20;;;;;;;5.09;70.83;102004.50;5053807;28;20466;-62
2023/04/27 04:43:58;;;;;;;10.95;5.90;;;;;;;5.10;70.28;102008.94;5053887;28;20029;-63
2023/04/27 04:46:24;;;;;;;8.82;5.57;;;;;;;5.05;71.07;102009.50;5053637;28;20147;-63
2023/04/27 04:48:50;;;;;;;10.20;5.65;;;;;;;4.99;71.06;102017.94;5053683;28;20033;-63
2023/04/27 04:51:16;;;;;;;10.85;5.53;;;;;;;4.90;71.75;102022.72;5053702;28;20090;-63
2023/04/27 04:53:42;;;;;;;9.98;5.47;;;;;;;4.84;72.23;102018.06;5053598;28;20025;-63
2023/04/27 04:56:12;;;;;;;10.65;6.00;;;;;;;4.92;71.94;102013.19;5053560;28;20072;-63
2023/04/27 04:58:39;;;;;;;7.38;5.30;;;;;;;5.02;71.87;102013.78;5053563;28;20033;-63
2023/04/27 05:01:05;;;;;;;11.38;5.65;;;;;;;5.12;72.48;102012.53;5053454;28;20029;-63
2023/04/27 05:03:31;;;;;;;10.60;5.32;;;;;;;5.23;71.85;102010.47;5053307;28;20180;-63
2023/04/27 05:05:56;;;;;;;8.20;5.97;;;;;;;5.32;71.54;102012.66;5053419;28;20286;-63
2023/04/27 05:08:22;;;;;;;10.38;6.25;;;;;;;5.36;71.79;102018.13;5053701;28;20115;-62
2023/04/27 05:10:49;;;;;;;9.98;5.78;;;;;;;5.47;71.73;102031.75;5053779;28;20031;-62
2023/04/27 05:13:14;;;;;;;12.15;6.53;;;;;;;5.57;71.36;102028.78;5053591;28;20036;-62
2023/04/27 05:15:40;;;;;;;10.60;6.07;;;;;;;5.67;71.32;102028.41;5052977;28;20048;-62
2023/04/27 05:18:06;;;;;;;12.13;6.57;;;;;;;5.72;71.30;102026.91;5053345;28;20028;-62
2023/04/27 05:20:34;;;;;;;8.82;5.80;;;;;;;5.82;70.84;102030.88;5053409;28;20032;-63
2023/04/27 05:22:59;;;;;;;12.50;6.30;;;;;;;5.96;70.44;102026.38;5053449;28;20036;-62
2023/04/27 05:25:25;;;;;;;11.85;6.68;;;;;;;6.05;70.15;102021.56;5052999;28;20029;-63
2023/04/27 05:27:50;;;;;;;10.27;6.18;;;;;;;6.12;70.17;102023.63;5052840;28;20478;-62
2023/04/27 05:30:15;;;;;;;11.98;6.43;;;;;;;6.15;70.02;102028.13;5035347;28;20025;-62
2023/04/27 05:32:41;;;;;;;8.88;6.13;;;;;;;6.24;69.81;102025.94;5052966;28;20025;-63
2023/04/27 05:35:06;;;;;;;16.73;6.63;;;;;;;6.36;69.63;102034.38;5052943;28;20033;-63
2023/04/27 05:37:32;;;;;;;11.63;5.97;;;;;;;6.53;68.83;102028.19;5053070;28;20025;-63
2023/04/27 05:39:57;;;;;;;11.82;5.90;;;;;;;6.66;68.83;102028.75;5053296;28;20154;-62
2023/04/27 05:42:23;;;;;;;11.00;6.05;;;;;;;6.76;68.17;102030.97;5052912;28;20029;-62
2023/04/27 05:44:48;;;;;;;10.20;6.10;;;;;;;6.85;68.60;102033.09;5052809;28;20448;-62
2023/04/27 05:47:13;;;;;;;10.98;6.28;;;;;;;6.90;67.41;102034.22;5052686;28;20032;-62
2023/04/27 05:49:39;;;;;;;10.50;6.00;;;;;;;6.98;67.27;102028.50;5053017;28;20079;-63
2023/04/27 05:52:04;;;;;;;11.65;6.18;;;;;;;7.07;67.33;102035.88;5052759;28;20082;-62
2023/04/27 05:54:29;;;;;;;10.98;6.47;;;;;;;7.14;67.83;102039.66;5052836;28;20033;-62
2023/04/27 05:56:55;;;;;;;11.05;5.90;;;;;;;7.25;67.03;102034.03;5052656;28;20374;-62
2023/04/27 05:59:20;;;;;;;10.32;5.60;;;;;;;7.33;66.97;102034.38;5052542;28;20033;-62
2023/04/27 06:01:46;;;;;;;13.20;6.00;;;;;;;7.42;66.85;102034.78;5052820;28;20025;-62
2023/04/27 06:04:11;;;;;;;12.38;6.38;;;;;;;7.57;65.22;102036.25;5052730;28;20483;-62
2023/04/27 06:06:37;;;;;;;12.25;5.75;;;;;;;7.70;66.13;102033.28;5052569;28;20493;-63
2023/04/27 06:09:03;;;;;;;9.18;5.47;;;;;;;7.76;65.71;102041.44;5052960;28;20059;-63
2023/04/27 06:11:28;;;;;;;9.02;5.43;;;;;;;7.76;65.25;102042.34;5034988;28;20516;-62
2023/04/27 06:13:53;;;;;;;16.15;8.65;;;;;;;7.90;66.70;102045.53;5052622;28;20033;-62
2023/04/27 06:16:20;;;;;;;10.15;5.57;;;;;;;8.06;65.53;102048.81;5052275;28;20049;-62
2023/04/27 06:18:45;;;;;;;7.20;4.93;;;;;;;8.03;64.81;102039.94;5052694;28;20370;-63
2023/04/27 06:21:10;;;;;;;8.70;5.03;;;;;;;7.97;61.96;102044.06;5052536;28;20048;-62
2023/04/27 06:23:36;;;;;;;7.72;4.50;;;;;;;7.92;63.55;102043.88;5052538;28;20079;-62
2023/04/27 06:26:01;;;;;;;10.95;5.05;;;;;;;8.05;63.92;102040.00;5056037;28;20033;-63
2023/04/27 06:28:27;;;;;;;7.20;4.28;;;;;;;8.20;62.18;102037.06;5056094;28;20117;-62
2023/04/27 06:30:52;;;;;;;7.75;4.25;;;;;;;8.36;61.36;102041.22;5056314;28;20056;-63
2023/04/27 06:33:18;;;;;;;12.25;5.07;;;;;;;8.49;62.03;102033.88;5056155;28;20025;-62
2023/04/27 06:35:44;;;;;;;8.57;4.38;;;;;;;8.63;63.02;102031.75;5056551;28;20032;-62
2023/04/27 06:38:09;;;;;;;9.20;4.97;;;;;;;8.65;61.38;102032.72;5056253;28;20112;-62
2023/04/27 06:40:35;;;;;;;9.00;4.60;;;;;;;8.68;62.12;102031.91;5038274;28;20104;-62
2023/04/27 06:43:01;;;;;;;11.10;4.70;;;;;;;8.88;61.40;102037.94;5056405;28;20171;-62
2023/04/27 06:45:26;;;;;;;9.48;4.68;;;;;;;8.94;59.17;102043.44;5055985;28;20524;-62
2023/04/27 06:47:52;;;;;;;8.20;4.60;;;;;;;9.03;60.51;102033.22;5055804;28;20025;-62
2023/04/27 06:50:17;;;;;;;12.68;4.45;;;;;;;9.10;60.20;102029.06;5055922;28;20533;-62
2023/04/27 06:52:43;;;;;;;8.55;4.22;;;;;;;9.29;58.14;102031.50;5055976;28;20025;-65
2023/04/27 06:55:08;;;;;;;12.30;4.55;;;;;;;9.46;58.84;102032.06;5056016;28;20108;-62
2023/04/27 06:57:34;;;;;;;9.18;4.45;;;;;;;9.54;58.17;102027.97;5055810;28;20025;-62
2023/04/27 06:59:59;;;;;;;7.15;4.43;;;;;;;9.46;57.01;102029.44;5055531;28;20112;-62
2023/04/27 07:02:24;;;;;;;8.50;4.80;;;;;;;9.49;58.13;102024.28;5055613;28;20124;-62
2023/04/27 07:04:50;;;;;;;13.38;5.22;;;;;;;9.58;56.86;102036.88;5055606;28;20033;-63
2023/04/27 07:07:15;;;;;;;7.72;4.95;;;;;;;9.69;57.80;102032.88;5055886;28;20049;-62
2023/04/27 07:09:41;;;;;;;10.48;4.90;;;;;;;9.76;57.32;102030.50;5055585;28;20053;-62
2023/04/27 07:12:06;;;;;;;9.18;5.13;;;;;;;9.87;57.15;102020.28;5055635;28;20052;-62
2023/04/27 07:14:32;;;;;;;13.15;5.90;;;;;;;9.94;56.37;102026.66;5055598;28;20025;-62
2023/04/27 07:16:58;;;;;;;9.82;5.53;;;;;;;10.00;57.17;102022.47;5055172;28;20060;-62
2023/04/27 07:19:23;;;;;;;12.95;5.78;;;;;;;10.25;56.13;102021.53;5055340;28;20033;-62
2023/04/27 07:21:49;;;;;;;9.25;5.00;;;;;;;10.45;56.46;102018.59;5055309;28;20052;-63
2023/04/27 07:24:14;;;;;;;10.73;5.32;;;;;;;10.66;54.97;102021.88;5055244;28;20029;-62
2023/04/27 07:26:40;;;;;;;12.82;5.65;;;;;;;10.82;54.90;102024.94;5055082;28;20462;-62
2023/04/27 07:29:05;;;;;;;17.58;5.75;;;;;;;10.93;55.42;102026.16;5055158;28;20017;-62
2023/04/27 07:31:32;;;;;;;10.93;5.88;;;;;;;10.95;55.43;102032.38;5055024;28;20075;-62
2023/04/27 07:33:59;;;;;;;11.35;5.82;;;;;;;11.06;54.07;102028.28;5055290;28;20036;-63
2023/04/27 07:36:25;;;;;;;14.07;6.20;;;;;;;11.20;53.38;102029.56;5036261;28;20474;-63
2023/04/27 07:38:51;;;;;;;10.05;5.70;;;;;;;11.29;53.67;102029.81;5055069;28;20029;-62
2023/04/27 07:41:19;;;;;;;9.82;5.65;;;;;;;11.35;53.22;102026.44;5054933;28;20036;-62
2023/04/27 07:43:44;;;;;;;13.63;5.60;;;;;;;11.45;53.69;102025.81;5054800;28;20477;-63
2023/04/27 07:46:11;;;;;;;10.75;5.75;;;;;;;11.63;54.58;102021.84;5054768;28;20067;-62
2023/04/27 07:48:36;;;;;;;10.75;5.55;;;;;;;11.78;52.37;102030.19;5054750;28;20359;-62
2023/04/27 07:51:01;;;;;;;12.15;5.72;;;;;;;11.77;52.05;102031.91;5054764;28;20039;-62
2023/04/27 07:53:27;;;;;;;11.10;5.53;;;;;;;11.79;51.92;102024.03;5054661;28;20027;-62
2023/04/27 07:55:52;;;;;;;11.75;5.55;;;;;;;11.86;51.01;102031.31;5054670;28;20021;-62
2023/04/27 07:58:18;;;;;;;10.65;5.35;;;;;;;11.93;51.34;102016.44;5054464;28;20378;-62
2023/04/27 08:00:45;;;;;;;10.18;5.40;;;;;;;12.17;51.05;102019.69;5054705;28;20033;-62
2023/04/27 08:03:10;;;;;;;12.45;5.82;;;;;;;12.29;49.33;102019.06;5054739;28;20029;-62
2023/04/27 08:05:36;;;;;;;10.05;5.53;;;;;;;12.40;50.84;102014.00;5054528;28;20385;-63
2023/04/27 08:08:01;;;;;;;12.15;5.35;;;;;;;12.21;48.87;102012.69;5054476;28;20386;-62
2023/04/27 08:10:26;;;;;;;10.50;5.30;;;;;;;12.14;50.36;102019.59;5054536;28;20111;-63
2023/04/27 08:12:52;;;;;;;10.80;5.07;;;;;;;12.32;50.63;102020.88;5054448;28;20390;-63
2023/04/27 08:15:17;;;;;;;10.90;4.90;;;;;;;12.33;48.26;102020.91;5053679;28;20088;-63
2023/04/27 08:17:43;;;;;;;9.65;5.10;;;;;;;12.57;48.89;102020.56;5055085;28;20036;-64
2023/04/27 08:20:12;;;;;;;8.98;4.85;;;;;;;12.58;48.53;102019.69;5056293;28;20486;-63
2023/04/27 08:22:39;;;;;;;9.35;4.90;;;;;;;12.66;48.84;102020.75;5044094;28;20051;-63
2023/04/27 08:25:06;;;;;;;8.32;4.70;;;;;;;12.79;46.56;102029.84;5033557;28;20022;-63
2023/04/27 08:27:32;;;;;;;12.52;4.72;;;;;;;12.92;47.21;102025.69;5033448;28;20018;-64
2023/04/27 08:29:59;;;;;;;8.32;4.50;;;;;;;13.04;45.83;102020.63;5033368;28;20144;-65
2023/04/27 08:32:25;;;;;;;10.85;4.40;;;;;;;13.03;46.88;102008.25;5033565;28;20029;-65
2023/04/27 08:34:50;;;;;;;9.50;4.53;;;;;;;12.96;44.49;102015.16;5016145;28;20359;-64
2023/04/27 08:37:17;;;;;;;7.57;3.80;;;;;;;12.85;44.89;102002.53;5033826;28;20029;-65
2023/04/27 08:39:43;;;;;;;10.18;4.40;;;;;;;12.90;44.71;101992.94;5015882;28;20026;-64
2023/04/27 08:42:12;;;;;;;7.30;4.25;;;;;;;13.00;45.96;101993.13;5031007;28;20033;-63
2023/04/27 08:44:40;;;;;;;8.13;4.38;;;;;;;13.07;46.42;101988.84;5029678;28;20029;-64
2023/04/27 08:47:06;;;;;;;8.65;4.18;;;;;;;13.18;45.77;101986.38;5032430;28;20026;-65
2023/04/27 08:49:31;;;;;;;6.18;3.97;;;;;;;13.28;44.47;101989.28;5033461;28;20044;-63
2023/04/27 08:51:56;;;;;;;7.32;3.63;;;;;;;13.43;43.94;101993.06;5033660;28;20033;-64
2023/04/27 08:54:22;;;;;;;11.13;3.90;;;;;;;13.44;41.97;101992.19;5033407;28;20022;-63
2023/04/27 08:56:47;;;;;;;8.88;4.13;;;;;;;13.68;41.37;101992.63;5033769;28;20025;-63
2023/04/27 08:59:14;;;;;;;9.75;4.22;;;;;;;13.93;41.28;101995.66;5033218;28;20029;-63
2023/04/27 09:01:47;;;;;;;6.75;3.83;;;;;;;14.19;41.40;101988.06;5033421;28;20022;-63
2023/04/27 09:04:13;;;;;;;7.25;4.10;;;;;;;14.06;40.89;101992.31;5033742;28;20043;-62
2023/04/27 09:06:38;;;;;;;9.20;4.40;;;;;;;14.08;39.79;101997.66;5033407;28;20109;-64
2023/04/27 09:09:05;;;;;;;9.55;4.50;;;;;;;14.07;41.44;101995.88;5033274;28;20455;-64
2023/04/27 09:11:36;;;;;;;6.13;3.90;;;;;;;13.98;39.57;101991.31;5033403;28;20021;-65
2023/04/27 09:14:15;;;;;;;9.48;4.32;;;;;;;13.86;40.03;101991.13;5033342;28;20041;-66
2023/04/27 09:16:41;;;;;;;8.38;3.90;;;;;;;13.95;38.80;101997.47;5049431;28;20052;-64
2023/04/27 09:19:07;;;;;;;7.40;3.60;;;;;;;14.27;38.39;101991.75;5053117;28;20033;-64
2023/04/27 09:21:32;;;;;;;8.57;3.78;;;;;;;14.43;39.91;101991.09;5053065;28;20505;-63
2023/04/27 09:24:09;;;;;;;8.50;4.50;;;;;;;14.74;39.38;101989.72;5052948;28;20027;-64
2023/04/27 09:26:36;;;;;;;6.90;4.07;;;;;;;15.05;38.22;101991.84;5053278;28;20074;-64
2023/04/27 09:29:01;;;;;;;9.05;4.07;;;;;;;15.12;35.77;101999.91;5052806;28;20113;-66
2023/04/27 09:31:31;;;;;;;11.52;4.90;;;;;;;15.11;36.74;101989.22;5052866;28;20444;-66
2023/04/27 09:33:57;;;;;;;6.60;4.47;;;;;;;15.05;37.44;101986.50;5035121;28;20483;-63
2023/04/27 09:36:24;;;;;;;9.98;4.72;;;;;;;15.02;37.97;101977.59;5052905;28;20109;-65
2023/04/27 09:38:51;;;;;;;9.02;5.07;;;;;;;14.91;39.74;101978.38;5053170;28;20113;-65
2023/04/27 09:41:16;;;;;;;8.43;4.65;;;;;;;14.72;39.04;101979.94;5053227;28;20052;-62
2023/04/27 09:43:44;;;;;;;8.60;5.38;;;;;;;14.74;38.61;101981.75;5052895;28;20075;-62
2023/04/27 09:46:12;;;;;;;9.63;4.50;;;;;;;15.07;37.20;101977.66;5053083;28;20120;-62
2023/04/27 09:48:38;;;;;;;7.32;4.50;;;;;;;15.27;35.42;101973.41;5052787;28;20025;-62
2023/04/27 09:51:03;;;;;;;5.95;4.40;;;;;;;15.50;35.57;101975.38;5053007;28;20024;-62
2023/04/27 09:53:36;;;;;;;10.27;4.63;;;;;;;15.37;36.00;101974.38;5052839;28;20033;-64
2023/04/27 09:56:41;;;;;;;6.35;4.18;;;;;;;15.44;37.07;101970.91;5052807;28;20079;-62
2023/04/27 09:59:20;;;;;;;10.50;4.25;;;;;;;15.74;36.85;101972.97;5053381;28;20091;-62
2023/04/27 10:01:53;;;;;;;8.20;4.60;;;;;;;16.01;36.55;101953.59;5056929;28;20029;-62
2023/04/27 10:04:44;;;;;;;;;;;;;;;16.20;35.17;101959.94;5057296;28;20029;-62
2023/04/27 10:07:11;;;;;;;9.70;4.50;;;;;;;16.09;33.08;101960.75;5056675;28;19971;-62
2023/04/27 10:09:40;;;;;;;7.95;4.32;;;;;;;15.92;34.76;101958.88;5056746;28;20033;-62
2023/04/27 10:12:13;;;;;;;6.00;4.07;;;;;;;15.86;34.47;101955.28;5056669;28;20075;-62
2023/04/27 10:14:48;;;;;;;7.38;4.35;;;;;;;15.94;35.00;101954.47;5038770;28;20032;-63
2023/04/27 10:17:14;;;;;;;7.75;4.20;;;;;;;16.14;35.29;101962.56;5056612;28;20041;-62
2023/04/27 10:19:40;;;;;;;7.70;4.28;;;;;;;16.19;34.02;101954.63;5056495;28;20474;-63
2023/04/27 10:22:07;;;;;;;8.48;4.55;;;;;;;16.11;34.62;101953.69;5056726;28;20032;-63
2023/04/27 10:24:38;;;;;;;7.82;4.53;;;;;;;16.06;34.54;101963.41;5056484;28;20025;-63
2023/04/27 10:27:09;;;;;;;9.18;4.65;;;;;;;15.99;34.14;101966.03;5056346;28;20143;-62
2023/04/27 10:29:42;;;;;;;7.90;4.47;;;;;;;16.02;33.59;101970.50;5056527;28;20068;-62
2023/04/27 10:32:23;;;;;;;7.35;4.47;;;;;;;16.10;33.95;101962.53;5056532;28;20029;-62
2023/04/27 10:35:04;;;;;;;10.65;4.80;;;;;;;16.01;33.13;101964.25;5056453;28;20037;-62
2023/04/27 10:37:42;;;;;;;8.43;5.00;;;;;;;16.13;33.02;101954.56;5056274;28;20037;-62
2023/04/27 10:40:13;;;;;;;6.40;4.75;;;;;;;16.25;32.33;101955.50;5056087;28;20029;-62
2023/04/27 10:42:40;;;;;;;8.38;4.43;;;;;;;16.36;32.15;101958.25;5056130;28;20021;-62
2023/04/27 10:45:05;;;;;;;8.40;4.75;;;;;;;16.25;31.88;101959.97;5056235;28;20025;-62
2023/04/27 10:48:08;;;;;;;7.80;4.60;;;;;;;15.76;33.05;101893.06;5089060;22;20148;-90
2023/04/27 10:53:54;;;;;;;9.93;4.95;;;;;;;16.33;33.25;101894.22;5061728;28;19919;-91
2023/04/27 10:56:26;;;;;;;7.53;4.60;;;;;;;16.24;32.62;101884.41;5075688;28;20430;-92
2023/04/27 11:02:26;;;;;;;;;;;;;;;;;;;;;
2023/04/27 11:05:15;;;;;;;;;;;;;;;;;;;;;
2023/04/27 11:08:23;;;;;;;8.43;5.07;;;;;;;17.69;32.60;101890.81;5077527;28;20108;-93
2023/04/27 11:11:16;;;;;;;;;;;;;;;;;;;;;
2023/04/27 11:14:06;;;;;;;;;;;;;;;;;;;;;
2023/04/27 11:17:13;;;;;;;11.32;5.18;;;;;;;17.82;31.48;101852.50;5054828;28;20380;-86
2023/04/27 11:19:51;;;;;;;13.57;5.40;;;;;;;18.11;30.08;101896.97;5040765;28;20075;-87
2023/04/27 11:22:34;;;;;;;8.00;5.20;;;;;;;18.06;29.81;101880.94;5020626;28;20091;-87
2023/04/27 11:25:08;;;;;;;9.57;5.22;;;;;;;18.12;30.62;101846.16;5056906;28;20074;-86
2023/04/27 11:27:50;;;;;;;11.57;4.90;;;;;;;18.66;30.29;101846.72;5075888;28;20025;-86
2023/04/27 11:30:41;;;;;;;10.35;5.07;;;;;;;19.02;29.76;101890.28;5058358;28;20040;-86
2023/04/27 11:33:38;;;;;;;8.50;5.28;;;;;;;18.79;27.49;101841.31;5050635;28;20054;-87
2023/04/27 11:36:52;;;;;;;;;;;;;;;;;;;;;
2023/04/27 11:39:47;;;;;;;10.60;4.90;;;;;;;19.00;28.51;101811.69;5076692;28;20043;-88
2023/04/27 11:42:42;;;;;;;;;;;;;;;;;;;;;
2023/04/27 11:48:39;;;;;;;8.05;4.60;;;;;;;19.07;26.78;101821.47;5062235;28;20110;-88
2023/04/27 11:51:07;;;;;;;10.75;4.80;;;;;;;19.17;26.52;101824.94;5043130;28;20463;-89